createdAt,value
2018-02-19T00:00:42.582Z,0.00
2018-02-19T00:01:48.110Z,0.00
2018-02-19T00:02:53.599Z,0.00
2018-02-19T00:03:59.111Z,0.00
2018-02-19T00:05:04.693Z,0.00
2018-02-19T00:06:10.124Z,0.00
2018-02-19T00:07:15.623Z,0.00
2018-02-19T00:08:21.126Z,0.00
2018-02-19T00:09:26.643Z,0.00
2018-02-19T00:10:32.184Z,0.00
2018-02-19T00:11:37.651Z,0.00
2018-02-19T00:12:43.148Z,0.00
2018-02-19T00:13:48.657Z,0.00
2018-02-19T00:14:54.157Z,0.00
2018-02-19T00:15:59.663Z,0.00
2018-02-19T00:17:05.194Z,0.00
2018-02-19T00:18:10.679Z,0.00
2018-02-19T00:19:16.192Z,0.00
2018-02-19T00:20:21.688Z,0.00
2018-02-19T00:21:27.192Z,0.00
2018-02-19T00:22:32.707Z,0.00
2018-02-19T00:23:38.224Z,0.00
2018-02-19T00:24:43.707Z,0.00
2018-02-19T00:25:49.220Z,0.00
2018-02-19T00:26:54.720Z,0.00
2018-02-19T00:28:00.230Z,0.00
2018-02-19T00:29:05.742Z,0.00
2018-02-19T00:30:11.238Z,0.00
2018-02-19T00:31:16.750Z,0.00
2018-02-19T00:32:22.251Z,0.00
2018-02-19T00:33:27.774Z,0.00
2018-02-19T00:34:33.261Z,0.00
2018-02-19T00:35:38.767Z,0.00
2018-02-19T00:36:44.272Z,0.00
2018-02-19T00:37:49.779Z,0.00
2018-02-19T00:38:55.289Z,0.00
2018-02-19T00:40:00.788Z,0.00
2018-02-19T00:41:06.307Z,0.00
2018-02-19T00:42:11.817Z,0.00
2018-02-19T00:43:17.309Z,0.00
2018-02-19T00:44:22.814Z,0.00
2018-02-19T00:45:28.323Z,0.00
2018-02-19T00:46:33.826Z,0.00
2018-02-19T00:47:39.331Z,0.00
2018-02-19T00:48:44.838Z,0.00
2018-02-19T00:49:50.340Z,0.00
2018-02-19T00:50:55.849Z,0.00
2018-02-19T00:52:01.355Z,0.00
2018-02-19T00:53:06.905Z,0.00
2018-02-19T00:54:12.375Z,0.00
2018-02-19T00:55:17.873Z,0.00
2018-02-19T00:56:23.379Z,0.00
2018-02-19T00:57:28.883Z,0.00
2018-02-19T00:58:34.385Z,0.00
2018-02-19T00:59:39.892Z,0.00
2018-02-19T01:00:45.397Z,0.00
2018-02-19T01:01:50.905Z,0.00
2018-02-19T01:02:56.410Z,0.00
2018-02-19T01:04:01.981Z,0.00
2018-02-19T01:05:07.428Z,0.00
2018-02-19T01:06:12.982Z,0.00
2018-02-19T01:07:18.430Z,0.00
2018-02-19T01:08:23.938Z,0.00
2018-02-19T01:09:29.469Z,0.00
2018-02-19T01:10:34.957Z,0.00
2018-02-19T01:11:40.455Z,0.00
2018-02-19T01:12:45.960Z,0.00
2018-02-19T01:13:51.471Z,0.00
2018-02-19T01:14:56.973Z,0.00
2018-02-19T01:16:02.482Z,0.00
2018-02-19T01:17:07.983Z,0.00
2018-02-19T01:18:13.489Z,0.00
2018-02-19T01:19:19.002Z,0.00
2018-02-19T01:20:24.498Z,0.00
2018-02-19T01:21:30.018Z,0.00
2018-02-19T01:22:35.514Z,0.00
2018-02-19T01:23:41.026Z,0.00
2018-02-19T01:24:46.523Z,0.00
2018-02-19T01:25:52.028Z,0.00
2018-02-19T01:26:57.545Z,0.00
2018-02-19T01:28:03.049Z,0.00
2018-02-19T01:29:08.548Z,0.00
2018-02-19T01:30:14.053Z,0.00
2018-02-19T01:31:19.555Z,0.00
2018-02-19T01:32:25.059Z,0.00
2018-02-19T01:33:30.565Z,0.00
2018-02-19T01:34:36.073Z,0.00
2018-02-19T01:35:41.576Z,0.00
2018-02-19T01:36:47.142Z,0.00
2018-02-19T01:37:52.590Z,0.00
2018-02-19T01:38:58.095Z,0.00
2018-02-19T01:40:03.600Z,0.00
2018-02-19T01:41:09.103Z,0.00
2018-02-19T01:42:14.607Z,0.00
2018-02-19T01:43:20.125Z,0.00
2018-02-19T01:44:25.623Z,0.00
2018-02-19T01:45:31.132Z,0.00
2018-02-19T01:46:36.638Z,0.00
2018-02-19T01:47:42.140Z,0.00
2018-02-19T01:48:47.649Z,0.00
2018-02-19T01:49:53.162Z,0.00
2018-02-19T01:50:58.656Z,0.00
2018-02-19T01:52:04.226Z,0.00
2018-02-19T01:53:09.664Z,0.00
2018-02-19T01:54:15.176Z,0.00
2018-02-19T01:55:20.676Z,0.00
2018-02-19T01:56:26.179Z,0.00
2018-02-19T01:57:31.699Z,0.00
2018-02-19T01:58:37.188Z,0.00
2018-02-19T01:59:42.699Z,0.00
2018-02-19T02:00:48.200Z,0.00
2018-02-19T02:01:53.707Z,0.00
2018-02-19T02:02:59.219Z,0.00
2018-02-19T02:04:04.716Z,0.00
2018-02-19T02:05:10.233Z,0.00
2018-02-19T02:06:15.729Z,0.00
2018-02-19T02:07:21.283Z,0.00
2018-02-19T02:08:26.750Z,0.00
2018-02-19T02:09:32.248Z,0.00
2018-02-19T02:10:37.749Z,0.00
2018-02-19T02:11:43.254Z,0.00
2018-02-19T02:12:48.766Z,0.00
2018-02-19T02:13:54.269Z,0.00
2018-02-19T02:14:59.776Z,0.00
2018-02-19T02:16:05.280Z,0.00
2018-02-19T02:17:10.784Z,0.00
2018-02-19T02:18:16.287Z,0.00
2018-02-19T02:19:21.798Z,0.00
2018-02-19T02:20:27.304Z,0.00
2018-02-19T02:21:32.808Z,0.00
2018-02-19T02:22:38.316Z,0.00
2018-02-19T02:23:43.816Z,0.00
2018-02-19T02:24:49.321Z,0.00
2018-02-19T02:25:54.828Z,0.00
2018-02-19T02:27:00.337Z,0.00
2018-02-19T02:28:05.840Z,0.00
2018-02-19T02:29:11.352Z,0.00
2018-02-19T02:30:16.856Z,0.00
2018-02-19T02:31:22.357Z,0.00
2018-02-19T02:32:27.869Z,0.00
2018-02-19T02:33:33.367Z,0.00
2018-02-19T02:34:38.879Z,0.00
2018-02-19T02:35:44.381Z,0.00
2018-02-19T02:36:49.885Z,0.00
2018-02-19T02:37:55.396Z,0.00
2018-02-19T02:39:00.907Z,0.00
2018-02-19T02:40:06.400Z,0.00
2018-02-19T02:41:11.907Z,0.00
2018-02-19T02:42:17.414Z,0.00
2018-02-19T02:43:22.913Z,0.00
2018-02-19T02:44:28.422Z,0.00
2018-02-19T02:45:33.941Z,0.00
2018-02-19T02:46:39.435Z,0.00
2018-02-19T02:47:44.947Z,0.00
2018-02-19T02:48:50.465Z,0.00
2018-02-19T02:49:55.957Z,0.00
2018-02-19T02:51:01.462Z,0.00
2018-02-19T02:52:06.960Z,0.00
2018-02-19T02:53:12.471Z,0.00
2018-02-19T02:54:17.969Z,0.00
2018-02-19T02:55:23.477Z,0.00
2018-02-19T02:56:28.997Z,0.00
2018-02-19T02:57:34.487Z,0.00
2018-02-19T02:58:39.995Z,0.00
2018-02-19T02:59:45.499Z,0.00
2018-02-19T03:00:51.004Z,0.00
2018-02-19T03:01:56.510Z,0.00
2018-02-19T03:03:02.023Z,0.00
2018-02-19T03:04:07.524Z,0.00
2018-02-19T03:05:13.031Z,0.00
2018-02-19T03:06:18.533Z,0.00
2018-02-19T03:07:24.036Z,0.00
2018-02-19T03:08:29.546Z,0.00
2018-02-19T03:09:35.048Z,0.00
2018-02-19T03:10:40.555Z,0.00
2018-02-19T03:11:46.059Z,0.00
2018-02-19T03:12:51.570Z,0.00
2018-02-19T03:13:57.072Z,0.00
2018-02-19T03:15:02.592Z,0.00
2018-02-19T03:16:08.086Z,0.00
2018-02-19T03:17:13.591Z,0.00
2018-02-19T03:18:19.092Z,0.00
2018-02-19T03:19:24.597Z,0.00
2018-02-19T03:20:30.104Z,0.00
2018-02-19T03:21:35.609Z,0.00
2018-02-19T03:22:41.117Z,0.00
2018-02-19T03:23:46.638Z,0.00
2018-02-19T03:24:52.128Z,0.00
2018-02-19T03:25:57.634Z,0.00
2018-02-19T03:27:03.144Z,0.00
2018-02-19T03:28:08.640Z,0.00
2018-02-19T03:29:14.145Z,0.00
2018-02-19T03:30:19.658Z,0.00
2018-02-19T03:31:25.165Z,0.00
2018-02-19T03:32:30.674Z,20.00
2018-02-19T03:33:36.188Z,24.00
2018-02-19T03:34:41.761Z,24.00
2018-02-19T03:35:47.185Z,20.00
2018-02-19T03:36:52.689Z,20.00
2018-02-19T03:37:58.196Z,20.00
2018-02-19T03:39:03.698Z,20.00
2018-02-19T03:40:09.211Z,20.00
2018-02-19T03:41:14.711Z,20.00
2018-02-19T03:42:20.217Z,20.00
2018-02-19T03:43:25.723Z,16.00
2018-02-19T03:44:31.231Z,16.00
2018-02-19T03:45:36.728Z,16.00
2018-02-19T03:46:42.241Z,20.00
2018-02-19T03:47:47.747Z,20.00
2018-02-19T03:48:53.252Z,20.00
2018-02-19T03:49:58.754Z,20.00
2018-02-19T03:51:04.255Z,20.00
2018-02-19T03:52:09.768Z,20.00
2018-02-19T03:53:15.270Z,20.00
2018-02-19T03:54:20.773Z,20.00
2018-02-19T03:55:26.281Z,20.00
2018-02-19T03:56:31.783Z,20.00
2018-02-19T03:57:37.288Z,20.00
2018-02-19T03:58:42.799Z,20.00
2018-02-19T03:59:48.321Z,20.00
2018-02-19T04:00:53.811Z,16.00
2018-02-19T04:01:59.312Z,16.00
2018-02-19T04:03:04.825Z,20.00
2018-02-19T04:04:10.323Z,16.00
2018-02-19T04:05:15.828Z,20.00
2018-02-19T04:06:21.340Z,20.00
2018-02-19T04:07:26.842Z,20.00
2018-02-19T04:08:32.348Z,20.00
2018-02-19T04:09:37.851Z,20.00
2018-02-19T04:10:43.355Z,20.00
2018-02-19T04:11:48.862Z,20.00
2018-02-19T04:12:54.368Z,20.00
2018-02-19T04:13:59.881Z,20.00
2018-02-19T04:15:05.384Z,20.00
2018-02-19T04:16:10.886Z,20.00
2018-02-19T04:17:16.389Z,20.00
2018-02-19T04:18:21.896Z,20.00
2018-02-19T04:19:27.414Z,20.00
2018-02-19T04:20:32.908Z,20.00
2018-02-19T04:21:38.415Z,20.00
2018-02-19T04:22:43.921Z,20.00
2018-02-19T04:23:49.428Z,20.00
2018-02-19T04:24:54.935Z,20.00
2018-02-19T04:26:00.438Z,20.00
2018-02-19T04:27:06.093Z,20.00
2018-02-19T04:28:11.449Z,20.00
2018-02-19T04:29:16.953Z,20.00
2018-02-19T04:30:22.465Z,20.00
2018-02-19T04:31:27.972Z,20.00
2018-02-19T04:32:33.474Z,20.00
2018-02-19T04:33:38.980Z,20.00
2018-02-19T04:34:44.487Z,20.00
2018-02-19T04:35:49.991Z,20.00
2018-02-19T04:36:55.499Z,20.00
2018-02-19T04:38:00.997Z,20.00
2018-02-19T04:39:06.509Z,20.00
2018-02-19T04:40:12.010Z,20.00
2018-02-19T04:41:17.516Z,20.00
2018-02-19T04:42:23.034Z,20.00
2018-02-19T04:43:28.546Z,20.00
2018-02-19T04:44:34.038Z,20.00
2018-02-19T04:45:39.539Z,20.00
2018-02-19T04:46:45.060Z,20.00
2018-02-19T04:47:50.559Z,20.00
2018-02-19T04:48:56.055Z,20.00
2018-02-19T04:50:01.568Z,20.00
2018-02-19T04:51:07.072Z,20.00
2018-02-19T04:52:12.579Z,20.00
2018-02-19T04:53:18.079Z,20.00
2018-02-19T04:54:23.586Z,20.00
2018-02-19T04:55:29.089Z,20.00
2018-02-19T04:56:34.597Z,20.00
2018-02-19T04:57:40.102Z,20.00
2018-02-19T04:58:45.605Z,20.00
2018-02-19T04:59:51.121Z,20.00
2018-02-19T05:00:56.618Z,16.00
2018-02-19T05:02:02.125Z,16.00
2018-02-19T05:03:07.633Z,16.00
2018-02-19T05:04:13.138Z,16.00
2018-02-19T05:05:18.642Z,16.00
2018-02-19T05:06:24.146Z,16.00
2018-02-19T05:07:29.650Z,16.00
2018-02-19T05:08:35.157Z,16.00
2018-02-19T05:09:40.666Z,16.00
2018-02-19T05:10:46.168Z,16.00
2018-02-19T05:11:51.676Z,16.00
2018-02-19T05:12:57.200Z,16.00
2018-02-19T05:14:02.728Z,0.00
2018-02-19T05:15:08.189Z,0.00
2018-02-19T05:16:13.697Z,0.00
2018-02-19T05:17:19.202Z,0.00
2018-02-19T05:18:24.709Z,0.00
2018-02-19T05:19:30.217Z,0.00
2018-02-19T05:20:35.719Z,0.00
2018-02-19T05:21:41.231Z,0.00
2018-02-19T05:22:46.728Z,0.00
2018-02-19T05:23:52.233Z,0.00
2018-02-19T05:24:57.741Z,0.00
2018-02-19T05:26:03.247Z,0.00
2018-02-19T05:27:08.753Z,0.00
2018-02-19T05:28:14.259Z,0.00
2018-02-19T05:29:19.760Z,0.00
2018-02-19T05:30:25.269Z,0.00
2018-02-19T05:31:30.779Z,0.00
2018-02-19T05:32:36.281Z,0.00
2018-02-19T05:33:41.789Z,0.00
2018-02-19T05:34:47.290Z,0.00
2018-02-19T05:35:52.801Z,0.00
2018-02-19T05:36:58.305Z,0.00
2018-02-19T05:38:03.818Z,0.00
2018-02-19T05:39:09.315Z,0.00
2018-02-19T05:40:14.820Z,0.00
2018-02-19T05:41:20.323Z,0.00
2018-02-19T05:42:25.830Z,0.00
2018-02-19T05:43:31.337Z,0.00
2018-02-19T05:44:36.861Z,0.00
2018-02-19T05:45:42.348Z,0.00
2018-02-19T05:46:47.851Z,0.00
2018-02-19T05:47:53.357Z,0.00
2018-02-19T05:48:58.864Z,0.00
2018-02-19T05:50:04.381Z,0.00
2018-02-19T05:51:09.885Z,0.00
2018-02-19T05:52:15.382Z,0.00
2018-02-19T05:53:20.897Z,0.00
2018-02-19T05:54:26.394Z,0.00
2018-02-19T05:55:31.897Z,0.00
2018-02-19T05:56:37.409Z,0.00
2018-02-19T05:57:42.907Z,0.00
2018-02-19T05:58:48.411Z,0.00
2018-02-19T05:59:53.924Z,0.00
2018-02-19T06:00:59.426Z,0.00
2018-02-19T06:02:04.935Z,0.00
2018-02-19T06:03:10.438Z,0.00
2018-02-19T06:04:15.950Z,0.00
2018-02-19T06:05:21.446Z,0.00
2018-02-19T06:06:26.953Z,0.00
2018-02-19T06:07:32.473Z,0.00
2018-02-19T06:08:37.964Z,0.00
2018-02-19T06:09:43.467Z,0.00
2018-02-19T06:10:48.979Z,0.00
2018-02-19T06:11:54.478Z,0.00
2018-02-19T06:12:59.983Z,0.00
2018-02-19T06:14:05.488Z,0.00
2018-02-19T06:15:10.996Z,0.00
2018-02-19T06:16:16.502Z,0.00
2018-02-19T06:17:22.015Z,0.00
2018-02-19T06:18:27.513Z,0.00
2018-02-19T06:19:33.017Z,4.00
2018-02-19T06:20:38.525Z,4.00
2018-02-19T06:21:44.028Z,0.00
2018-02-19T06:22:49.534Z,4.00
2018-02-19T06:23:55.041Z,4.00
2018-02-19T06:25:00.549Z,0.00
2018-02-19T06:26:06.055Z,4.00
2018-02-19T06:27:11.566Z,4.00
2018-02-19T06:28:17.063Z,4.00
2018-02-19T06:29:22.568Z,8.00
2018-02-19T06:30:28.081Z,8.00
2018-02-19T06:31:33.580Z,8.00
2018-02-19T06:32:39.088Z,12.00
2018-02-19T06:33:44.591Z,12.00
2018-02-19T06:34:50.097Z,12.00
2018-02-19T06:35:55.633Z,12.00
2018-02-19T06:37:01.110Z,12.00
2018-02-19T06:38:06.614Z,20.00
2018-02-19T06:39:12.120Z,16.00
2018-02-19T06:40:17.626Z,20.00
2018-02-19T06:41:23.130Z,24.00
2018-02-19T06:42:28.635Z,20.00
2018-02-19T06:43:34.153Z,28.00
2018-02-19T06:44:39.647Z,28.00
2018-02-19T06:45:45.154Z,32.00
2018-02-19T06:46:50.658Z,36.00
2018-02-19T06:47:56.162Z,36.00
2018-02-19T06:49:01.670Z,36.00
2018-02-19T06:50:07.180Z,44.00
2018-02-19T06:51:12.683Z,44.00
2018-02-19T06:52:18.186Z,48.00
2018-02-19T06:53:23.693Z,52.00
2018-02-19T06:54:29.200Z,56.00
2018-02-19T06:55:34.790Z,60.00
2018-02-19T06:56:40.214Z,60.00
2018-02-19T06:57:45.764Z,64.00
2018-02-19T06:58:51.224Z,68.00
2018-02-19T06:59:56.726Z,76.00
2018-02-19T07:01:02.238Z,76.00
2018-02-19T07:02:07.737Z,80.00
2018-02-19T07:03:13.248Z,84.00
2018-02-19T07:04:18.759Z,84.00
2018-02-19T07:05:24.259Z,88.00
2018-02-19T07:06:29.760Z,88.00
2018-02-19T07:07:35.269Z,92.00
2018-02-19T07:08:40.786Z,96.00
2018-02-19T07:09:46.278Z,100.00
2018-02-19T07:10:51.784Z,104.00
2018-02-19T07:11:57.288Z,108.00
2018-02-19T07:13:02.801Z,108.00
2018-02-19T07:14:08.309Z,112.00
2018-02-19T07:15:13.809Z,116.00
2018-02-19T07:16:19.316Z,120.00
2018-02-19T07:17:24.817Z,120.00
2018-02-19T07:18:30.329Z,124.00
2018-02-19T07:19:35.881Z,132.00
2018-02-19T07:20:41.338Z,128.00
2018-02-19T07:21:46.844Z,132.00
2018-02-19T07:22:52.348Z,136.00
2018-02-19T07:23:57.867Z,136.00
2018-02-19T07:25:03.401Z,140.00
2018-02-19T07:26:08.866Z,148.00
2018-02-19T07:27:14.376Z,148.00
2018-02-19T07:28:19.878Z,148.00
2018-02-19T07:29:25.381Z,148.00
2018-02-19T07:30:30.899Z,152.00
2018-02-19T07:31:36.396Z,152.00
2018-02-19T07:32:41.898Z,160.00
2018-02-19T07:33:47.408Z,164.00
2018-02-19T07:34:52.916Z,168.00
2018-02-19T07:35:58.421Z,172.00
2018-02-19T07:37:03.933Z,184.00
2018-02-19T07:38:09.429Z,184.00
2018-02-19T07:39:14.936Z,192.00
2018-02-19T07:40:20.446Z,188.00
2018-02-19T07:41:25.946Z,192.00
2018-02-19T07:42:31.452Z,196.00
2018-02-19T07:43:36.958Z,204.00
2018-02-19T07:44:42.474Z,212.00
2018-02-19T07:45:48.010Z,212.00
2018-02-19T07:46:53.478Z,216.00
2018-02-19T07:47:58.982Z,220.00
2018-02-19T07:49:04.495Z,228.00
2018-02-19T07:50:09.996Z,232.00
2018-02-19T07:51:15.514Z,232.00
2018-02-19T07:52:21.011Z,236.00
2018-02-19T07:53:26.518Z,240.00
2018-02-19T07:54:32.017Z,256.00
2018-02-19T07:55:37.524Z,264.00
2018-02-19T07:56:43.033Z,268.00
2018-02-19T07:57:48.534Z,272.00
2018-02-19T07:58:54.045Z,204.00
2018-02-19T07:59:59.549Z,284.00
2018-02-19T08:01:05.052Z,288.00
2018-02-19T08:02:10.560Z,288.00
2018-02-19T08:03:16.062Z,292.00
2018-02-19T08:04:21.568Z,300.00
2018-02-19T08:05:27.077Z,308.00
2018-02-19T08:06:32.584Z,320.00
2018-02-19T08:07:38.089Z,340.00
2018-02-19T08:08:43.599Z,348.00
2018-02-19T08:09:49.107Z,348.00
2018-02-19T08:10:54.609Z,360.00
2018-02-19T08:12:00.112Z,360.00
2018-02-19T08:13:05.621Z,360.00
2018-02-19T08:14:11.121Z,368.00
2018-02-19T08:15:16.640Z,384.00
2018-02-19T08:16:22.136Z,388.00
2018-02-19T08:17:27.641Z,404.00
2018-02-19T08:18:33.150Z,420.00
2018-02-19T08:19:38.651Z,440.00
2018-02-19T08:20:44.160Z,452.00
2018-02-19T08:21:49.663Z,468.00
2018-02-19T08:22:55.180Z,480.00
2018-02-19T08:24:00.675Z,480.00
2018-02-19T08:25:06.180Z,484.00
2018-02-19T08:26:11.690Z,496.00
2018-02-19T08:27:17.202Z,512.00
2018-02-19T08:28:22.698Z,528.00
2018-02-19T08:29:28.269Z,544.00
2018-02-19T08:30:33.710Z,556.00
2018-02-19T08:31:39.218Z,572.00
2018-02-19T08:32:44.727Z,588.00
2018-02-19T08:33:50.230Z,604.00
2018-02-19T08:34:55.735Z,620.00
2018-02-19T08:36:01.247Z,640.00
2018-02-19T08:37:06.751Z,644.00
2018-02-19T08:38:12.258Z,652.00
2018-02-19T08:39:17.761Z,668.00
2018-02-19T08:40:23.269Z,680.00
2018-02-19T08:41:28.815Z,688.00
2018-02-19T08:42:34.280Z,692.00
2018-02-19T08:43:39.787Z,712.00
2018-02-19T08:44:45.302Z,732.00
2018-02-19T08:45:50.800Z,740.00
2018-02-19T08:46:56.303Z,752.00
2018-02-19T08:48:01.814Z,756.00
2018-02-19T08:49:07.315Z,764.00
2018-02-19T08:50:12.832Z,764.00
2018-02-19T08:51:18.331Z,764.00
2018-02-19T08:52:23.842Z,780.00
2018-02-19T08:53:29.347Z,780.00
2018-02-19T08:54:34.848Z,788.00
2018-02-19T08:55:40.353Z,796.00
2018-02-19T08:56:45.869Z,808.00
2018-02-19T08:57:51.399Z,804.00
2018-02-19T08:58:56.874Z,820.00
2018-02-19T09:00:02.383Z,824.00
2018-02-19T09:01:07.890Z,828.00
2018-02-19T09:02:13.394Z,828.00
2018-02-19T09:03:18.902Z,836.00
2018-02-19T09:04:24.416Z,832.00
2018-02-19T09:05:29.951Z,836.00
2018-02-19T09:06:35.421Z,828.00
2018-02-19T09:07:40.953Z,816.00
2018-02-19T09:08:46.440Z,820.00
2018-02-19T09:09:51.953Z,820.00
2018-02-19T09:10:57.451Z,808.00
2018-02-19T09:12:02.971Z,800.00
2018-02-19T09:13:08.465Z,788.00
2018-02-19T09:14:13.970Z,780.00
2018-02-19T09:15:19.476Z,764.00
2018-02-19T09:16:24.984Z,736.00
2018-02-19T09:17:30.491Z,720.00
2018-02-19T09:18:36.000Z,716.00
2018-02-19T09:19:41.509Z,728.00
2018-02-19T09:20:47.017Z,744.00
2018-02-19T09:21:52.517Z,756.00
2018-02-19T09:22:58.030Z,776.00
2018-02-19T09:24:03.533Z,784.00
2018-02-19T09:25:09.039Z,784.00
2018-02-19T09:26:14.544Z,772.00
2018-02-19T09:27:20.051Z,768.00
2018-02-19T09:28:25.560Z,748.00
2018-02-19T09:29:31.067Z,732.00
2018-02-19T09:30:36.572Z,708.00
2018-02-19T09:31:42.077Z,688.00
2018-02-19T09:32:47.587Z,668.00
2018-02-19T09:33:53.099Z,652.00
2018-02-19T09:34:58.598Z,652.00
2018-02-19T09:36:04.107Z,652.00
2018-02-19T09:37:09.615Z,656.00
2018-02-19T09:38:15.119Z,688.00
2018-02-19T09:39:20.635Z,720.00
2018-02-19T09:40:26.136Z,752.00
2018-02-19T09:41:31.642Z,812.00
2018-02-19T09:42:37.160Z,800.00
2018-02-19T09:43:42.660Z,816.00
2018-02-19T09:44:48.278Z,784.00
2018-02-19T09:45:53.766Z,792.00
2018-02-19T09:46:59.199Z,784.00
2018-02-19T09:48:04.708Z,776.00
2018-02-19T09:49:10.198Z,772.00
2018-02-19T09:50:15.755Z,776.00
2018-02-19T09:51:21.217Z,784.00
2018-02-19T09:52:26.726Z,772.00
2018-02-19T09:53:32.279Z,760.00
2018-02-19T09:54:37.731Z,752.00
2018-02-19T09:55:43.239Z,740.00
2018-02-19T09:56:48.741Z,736.00
2018-02-19T09:57:54.250Z,732.00
2018-02-19T09:58:59.803Z,720.00
2018-02-19T10:00:05.262Z,712.00
2018-02-19T10:01:10.767Z,704.00
2018-02-19T10:02:16.284Z,692.00
2018-02-19T10:03:21.796Z,696.00
2018-02-19T10:04:27.305Z,700.00
2018-02-19T10:05:32.848Z,696.00
2018-02-19T10:06:38.307Z,700.00
2018-02-19T10:07:43.814Z,704.00
2018-02-19T10:08:49.323Z,712.00
2018-02-19T10:09:54.829Z,720.00
2018-02-19T10:11:00.352Z,724.00
2018-02-19T10:12:05.902Z,712.00
2018-02-19T10:13:11.352Z,732.00
2018-02-19T10:14:16.856Z,756.00
2018-02-19T10:15:22.369Z,788.00
2018-02-19T10:16:27.884Z,844.00
2018-02-19T10:17:33.382Z,892.00
2018-02-19T10:18:38.909Z,928.00
2018-02-19T10:19:44.399Z,976.00
2018-02-19T10:20:49.909Z,1016.00
2018-02-19T10:21:55.420Z,1036.00
2018-02-19T10:23:00.919Z,1056.00
2018-02-19T10:24:06.429Z,1076.00
2018-02-19T10:25:11.954Z,1128.00
2018-02-19T10:26:17.443Z,1176.00
2018-02-19T10:27:22.955Z,1072.00
2018-02-19T10:28:28.460Z,1152.00
2018-02-19T10:29:33.970Z,1156.00
2018-02-19T10:30:39.479Z,1108.00
2018-02-19T10:31:44.991Z,1240.00
2018-02-19T10:32:50.491Z,1260.00
2018-02-19T10:33:55.997Z,1196.00
2018-02-19T10:35:01.510Z,1256.00
2018-02-19T10:36:07.015Z,1220.00
2018-02-19T10:37:12.530Z,1192.00
2018-02-19T10:38:18.030Z,1164.00
2018-02-19T10:39:23.543Z,1184.00
2018-02-19T10:40:29.048Z,1148.00
2018-02-19T10:41:34.563Z,1124.00
2018-02-19T10:42:40.090Z,1144.00
2018-02-19T10:43:45.585Z,1164.00
2018-02-19T10:44:51.107Z,1156.00
2018-02-19T10:45:56.600Z,1108.00
2018-02-19T10:47:02.098Z,1100.00
2018-02-19T10:48:07.609Z,1108.00
2018-02-19T10:49:13.113Z,1108.00
2018-02-19T10:50:18.619Z,1172.00
2018-02-19T10:51:24.131Z,1264.00
2018-02-19T10:52:29.642Z,1200.00
2018-02-19T10:53:35.148Z,1312.00
2018-02-19T10:54:40.666Z,1392.00
2018-02-19T10:55:46.171Z,1432.00
2018-02-19T10:56:51.675Z,1380.00
2018-02-19T10:57:57.187Z,1376.00
2018-02-19T10:59:02.694Z,1540.00
2018-02-19T11:00:08.198Z,1436.00
2018-02-19T11:01:13.708Z,1348.00
2018-02-19T11:02:19.234Z,1256.00
2018-02-19T11:03:24.917Z,1280.00
2018-02-19T11:04:30.291Z,1232.00
2018-02-19T11:05:35.747Z,1168.00
2018-02-19T11:06:41.255Z,1184.00
2018-02-19T11:07:46.765Z,1288.00
2018-02-19T11:08:52.269Z,1380.00
2018-02-19T11:09:57.778Z,1240.00
2018-02-19T11:11:03.290Z,1232.00
2018-02-19T11:12:08.799Z,1212.00
2018-02-19T11:13:14.351Z,1244.00
2018-02-19T11:14:19.820Z,1356.00
2018-02-19T11:15:25.327Z,1376.00
2018-02-19T11:16:30.836Z,1280.00
2018-02-19T11:17:36.345Z,1396.00
2018-02-19T11:18:41.855Z,1476.00
2018-02-19T11:19:47.365Z,1444.00
2018-02-19T11:20:52.874Z,1464.00
2018-02-19T11:21:58.385Z,1444.00
2018-02-19T11:23:03.897Z,1544.00
2018-02-19T11:24:09.440Z,1524.00
2018-02-19T11:25:14.922Z,1588.00
2018-02-19T11:26:20.420Z,1544.00
2018-02-19T11:27:25.932Z,1476.00
2018-02-19T11:28:31.439Z,1432.00
2018-02-19T11:29:36.991Z,1320.00
2018-02-19T11:30:42.459Z,1308.00
2018-02-19T11:31:47.972Z,1348.00
2018-02-19T11:32:53.474Z,1348.00
2018-02-19T11:33:58.996Z,1496.00
2018-02-19T11:35:04.521Z,1552.00
2018-02-19T11:36:10.006Z,1536.00
2018-02-19T11:37:15.515Z,1680.00
2018-02-19T11:38:21.026Z,1628.00
2018-02-19T11:39:26.531Z,1416.00
2018-02-19T11:40:32.048Z,1428.00
2018-02-19T11:41:37.554Z,1416.00
2018-02-19T11:42:43.062Z,1492.00
2018-02-19T11:43:48.569Z,1524.00
2018-02-19T11:44:54.079Z,1540.00
2018-02-19T11:45:59.595Z,1572.00
2018-02-19T11:47:05.102Z,1560.00
2018-02-19T11:48:10.605Z,1548.00
2018-02-19T11:49:16.120Z,1532.00
2018-02-19T11:50:21.631Z,1520.00
2018-02-19T11:51:27.138Z,1568.00
2018-02-19T11:52:32.649Z,1580.00
2018-02-19T11:53:38.155Z,1556.00
2018-02-19T11:54:43.680Z,1572.00
2018-02-19T11:55:49.179Z,1548.00
2018-02-19T11:56:54.696Z,1540.00
2018-02-19T11:58:00.198Z,1552.00
2018-02-19T11:59:05.704Z,1532.00
2018-02-19T12:00:11.213Z,1548.00
2018-02-19T12:01:16.727Z,1588.00
2018-02-19T12:02:22.355Z,1604.00
2018-02-19T12:03:27.749Z,1564.00
2018-02-19T12:04:33.254Z,1556.00
2018-02-19T12:05:38.771Z,1524.00
2018-02-19T12:06:44.277Z,1532.00
2018-02-19T12:07:49.789Z,1492.00
2018-02-19T12:08:55.309Z,1448.00
2018-02-19T12:10:00.809Z,1456.00
2018-02-19T12:11:06.315Z,1440.00
2018-02-19T12:12:11.824Z,1472.00
2018-02-19T12:13:17.334Z,1432.00
2018-02-19T12:14:22.839Z,1436.00
2018-02-19T12:15:28.351Z,1444.00
2018-02-19T12:16:33.862Z,1436.00
2018-02-19T12:17:39.371Z,1448.00
2018-02-19T12:18:44.889Z,1240.00
2018-02-19T12:19:50.396Z,1440.00
2018-02-19T12:20:55.899Z,1724.00
2018-02-19T12:22:01.409Z,1636.00
2018-02-19T12:23:06.918Z,2304.00
2018-02-19T12:24:12.434Z,2504.00
2018-02-19T12:25:17.937Z,2440.00
2018-02-19T12:26:23.465Z,2244.00
2018-02-19T12:27:28.959Z,1980.00
2018-02-19T12:28:34.467Z,1948.00
2018-02-19T12:29:39.985Z,2152.00
2018-02-19T12:30:45.487Z,2452.00
2018-02-19T12:31:50.996Z,2648.00
2018-02-19T12:32:56.507Z,2336.00
2018-02-19T12:34:02.018Z,1836.00
2018-02-19T12:35:07.531Z,1476.00
2018-02-19T12:36:13.036Z,1476.00
2018-02-19T12:37:18.554Z,1556.00
2018-02-19T12:38:24.057Z,1668.00
2018-02-19T12:39:29.582Z,1668.00
2018-02-19T12:40:35.078Z,1476.00
2018-02-19T12:41:40.593Z,1460.00
2018-02-19T12:42:46.101Z,1560.00
2018-02-19T12:43:51.610Z,1488.00
2018-02-19T12:44:57.131Z,1432.00
2018-02-19T12:46:02.653Z,1508.00
2018-02-19T12:47:08.139Z,1808.00
2018-02-19T12:48:13.649Z,2180.00
2018-02-19T12:49:19.164Z,2988.00
2018-02-19T12:50:24.669Z,4160.00
2018-02-19T12:51:30.177Z,7200.00
2018-02-19T12:52:35.696Z,11880.00
2018-02-19T12:53:41.211Z,13040.00
2018-02-19T12:54:46.711Z,4804.00
2018-02-19T12:55:52.222Z,6020.00
2018-02-19T12:56:57.736Z,5824.00
2018-02-19T12:58:03.248Z,7556.00
2018-02-19T12:59:08.753Z,3224.00
2018-02-19T13:00:14.262Z,1788.00
2018-02-19T13:01:19.773Z,1524.00
2018-02-19T13:02:25.292Z,1508.00
2018-02-19T13:03:30.796Z,1572.00
2018-02-19T13:04:36.308Z,1760.00
2018-02-19T13:05:41.822Z,3384.00
2018-02-19T13:06:47.325Z,4892.00
2018-02-19T13:07:52.837Z,5200.00
2018-02-19T13:08:58.364Z,6916.00
2018-02-19T13:10:03.857Z,7276.00
2018-02-19T13:11:09.376Z,5920.00
2018-02-19T13:12:14.888Z,4232.00
2018-02-19T13:13:20.398Z,3960.00
2018-02-19T13:14:25.903Z,2720.00
2018-02-19T13:15:31.419Z,4180.00
2018-02-19T13:16:36.930Z,5272.00
2018-02-19T13:17:42.440Z,5888.00
2018-02-19T13:18:47.965Z,6120.00
2018-02-19T13:19:53.468Z,6932.00
2018-02-19T13:20:58.977Z,7352.00
2018-02-19T13:22:04.494Z,7936.00
2018-02-19T13:23:10.008Z,6284.00
2018-02-19T13:24:15.522Z,5324.00
2018-02-19T13:25:21.037Z,1792.00
2018-02-19T13:26:26.553Z,7128.00
2018-02-19T13:27:32.067Z,6036.00
2018-02-19T13:28:37.571Z,6428.00
2018-02-19T13:29:43.089Z,5432.00
2018-02-19T13:30:48.600Z,5100.00
2018-02-19T13:31:54.113Z,5000.00
2018-02-19T13:32:59.643Z,5808.00
2018-02-19T13:34:05.148Z,4336.00
2018-02-19T13:35:10.653Z,3892.00
2018-02-19T13:36:16.171Z,3840.00
2018-02-19T13:37:21.692Z,3916.00
2018-02-19T13:38:27.196Z,3296.00
2018-02-19T13:39:32.715Z,3132.00
2018-02-19T13:40:38.231Z,2376.00
2018-02-19T13:41:43.737Z,2060.00
2018-02-19T13:42:49.246Z,1832.00
2018-02-19T13:43:54.767Z,1680.00
2018-02-19T13:45:00.300Z,1336.00
2018-02-19T13:46:05.785Z,1208.00
2018-02-19T13:47:11.309Z,1088.00
2018-02-19T13:48:16.818Z,984.00
2018-02-19T13:49:22.328Z,984.00
2018-02-19T13:50:27.840Z,920.00
2018-02-19T13:51:33.349Z,960.00
2018-02-19T13:52:38.866Z,920.00
2018-02-19T13:53:44.483Z,884.00